Pagina principale
METAR-TAF:

METAR-TAF

Aeroporti :

Passo della Cisa, Italia

latitudine: 44-26N, longitudine: 009-56E, altezza: 1039 m

Osservazione

Il bollettino è stato emesso 49 minuti fa, alle 05:55 UTC
Vento 6 kt da nord/nord-est
Temperature 17°C
Umidità 29%
Pressione 1008 hPa
Visibilità 10 km o più
Poco nuvoloso ad un'altezza di 1500 ft

METAR: LIMT 260555Z 03006KT 9999 FEW015 17/M01 Q1008 RMK SCT SCT140 MON LIB VAL NIL VIS MIN 9999

Ora: 08:44 (06:44 UTC)


TAF: mancante

Osservazioni e previsioni meteorologiche di più di 4000 aeroporti (messaggi METAR e TAF).

Le stazioni disponibili sono rappresentate dai dischi gialli e rossi sulla carta.

Puntare il mouse per vedere il nome della stazione.

Clicca sopra per visualizzare le osservazioni e previsioni meteorologiche.

Per cambiare la mappa : fare clic sui pulsanti verdi con una croce nera per ingrandire, il pulsante verde con un trattino per diminuire, o sulla freccia verde per le mappe adiacenti.


METAR-TAF: